sensor_id;sensor_type;location;lat;lon;timestamp;P1;durP1;ratioP1;P2;durP2;ratioP2
77736;SDS011;66903;59.926;30.404;2024-03-06T00:02:09;0.40;;;0.40;;
77736;SDS011;66903;59.926;30.404;2024-03-06T00:07:20;0.50;;;0.30;;
77736;SDS011;66903;59.926;30.404;2024-03-06T00:12:31;0.38;;;0.38;;
77736;SDS011;66903;59.926;30.404;2024-03-06T00:17:42;0.57;;;0.45;;
77736;SDS011;66903;59.926;30.404;2024-03-06T00:22:53;0.45;;;0.40;;
77736;SDS011;66903;59.926;30.404;2024-03-06T00:28:04;0.80;;;0.50;;
77736;SDS011;66903;59.926;30.404;2024-03-06T00:33:18;0.90;;;0.55;;
77736;SDS011;66903;59.926;30.404;2024-03-06T00:38:32;0.57;;;0.40;;
77736;SDS011;66903;59.926;30.404;2024-03-06T00:43:43;1.00;;;0.65;;
77736;SDS011;66903;59.926;30.404;2024-03-06T00:48:54;0.70;;;0.40;;
77736;SDS011;66903;59.926;30.404;2024-03-06T00:54:05;0.60;;;0.45;;
77736;SDS011;66903;59.926;30.404;2024-03-06T00:59:16;0.77;;;0.40;;
77736;SDS011;66903;59.926;30.404;2024-03-06T01:04:27;0.40;;;0.40;;
77736;SDS011;66903;59.926;30.404;2024-03-06T01:09:38;0.50;;;0.50;;
77736;SDS011;66903;59.926;30.404;2024-03-06T01:14:50;0.63;;;0.43;;
77736;SDS011;66903;59.926;30.404;2024-03-06T01:20:01;0.40;;;0.40;;
77736;SDS011;66903;59.926;30.404;2024-03-06T01:25:14;0.80;;;0.52;;
77736;SDS011;66903;59.926;30.404;2024-03-06T01:30:25;0.60;;;0.60;;
77736;SDS011;66903;59.926;30.404;2024-03-06T01:35:36;0.55;;;0.45;;
77736;SDS011;66903;59.926;30.404;2024-03-06T01:40:47;0.88;;;0.52;;
77736;SDS011;66903;59.926;30.404;2024-03-06T01:45:58;0.40;;;0.40;;
77736;SDS011;66903;59.926;30.404;2024-03-06T01:51:11;0.57;;;0.32;;
77736;SDS011;66903;59.926;30.404;2024-03-06T01:56:22;0.38;;;0.35;;
77736;SDS011;66903;59.926;30.404;2024-03-06T02:01:34;0.47;;;0.40;;
77736;SDS011;66903;59.926;30.404;2024-03-06T02:06:45;0.80;;;0.50;;
77736;SDS011;66903;59.926;30.404;2024-03-06T02:11:56;0.88;;;0.52;;
77736;SDS011;66903;59.926;30.404;2024-03-06T02:17:08;1.25;;;0.55;;
77736;SDS011;66903;59.926;30.404;2024-03-06T02:22:19;0.82;;;0.60;;
77736;SDS011;66903;59.926;30.404;2024-03-06T02:27:29;1.13;;;0.63;;
77736;SDS011;66903;59.926;30.404;2024-03-06T02:32:41;0.47;;;0.47;;
77736;SDS011;66903;59.926;30.404;2024-03-06T02:37:54;1.27;;;0.60;;
77736;SDS011;66903;59.926;30.404;2024-03-06T02:43:07;0.38;;;0.32;;
77736;SDS011;66903;59.926;30.404;2024-03-06T02:48:18;0.45;;;0.30;;
77736;SDS011;66903;59.926;30.404;2024-03-06T02:53:29;0.75;;;0.50;;
77736;SDS011;66903;59.926;30.404;2024-03-06T02:58:40;1.13;;;0.47;;
77736;SDS011;66903;59.926;30.404;2024-03-06T03:03:51;1.05;;;0.65;;
77736;SDS011;66903;59.926;30.404;2024-03-06T03:09:02;0.43;;;0.32;;
77736;SDS011;66903;59.926;30.404;2024-03-06T03:14:16;1.05;;;0.52;;
77736;SDS011;66903;59.926;30.404;2024-03-06T03:19:27;1.10;;;0.60;;
77736;SDS011;66903;59.926;30.404;2024-03-06T03:24:41;0.50;;;0.50;;
77736;SDS011;66903;59.926;30.404;2024-03-06T03:29:52;0.98;;;0.60;;
77736;SDS011;66903;59.926;30.404;2024-03-06T03:35:04;0.63;;;0.50;;
77736;SDS011;66903;59.926;30.404;2024-03-06T03:40:16;0.98;;;0.55;;
77736;SDS011;66903;59.926;30.404;2024-03-06T03:45:27;0.95;;;0.60;;
77736;SDS011;66903;59.926;30.404;2024-03-06T03:50:39;0.50;;;0.50;;
77736;SDS011;66903;59.926;30.404;2024-03-06T03:55:50;0.40;;;0.40;;
77736;SDS011;66903;59.926;30.404;2024-03-06T04:01:01;0.38;;;0.38;;
77736;SDS011;66903;59.926;30.404;2024-03-06T04:06:12;0.40;;;0.40;;
77736;SDS011;66903;59.926;30.404;2024-03-06T04:11:23;0.68;;;0.45;;
77736;SDS011;66903;59.926;30.404;2024-03-06T04:16:34;0.40;;;0.40;;
77736;SDS011;66903;59.926;30.404;2024-03-06T04:21:46;0.50;;;0.40;;
77736;SDS011;66903;59.926;30.404;2024-03-06T04:26:57;0.70;;;0.50;;
77736;SDS011;66903;59.926;30.404;2024-03-06T04:32:07;0.40;;;0.40;;
77736;SDS011;66903;59.926;30.404;2024-03-06T04:37:19;0.88;;;0.50;;
77736;SDS011;66903;59.926;30.404;2024-03-06T04:42:30;0.73;;;0.70;;
77736;SDS011;66903;59.926;30.404;2024-03-06T04:47:41;0.75;;;0.70;;
77736;SDS011;66903;59.926;30.404;2024-03-06T04:52:52;0.70;;;0.47;;
77736;SDS011;66903;59.926;30.404;2024-03-06T04:58:04;0.85;;;0.57;;
77736;SDS011;66903;59.926;30.404;2024-03-06T05:03:15;0.90;;;0.60;;
77736;SDS011;66903;59.926;30.404;2024-03-06T05:08:25;0.93;;;0.60;;
77736;SDS011;66903;59.926;30.404;2024-03-06T05:13:36;0.30;;;0.30;;
77736;SDS011;66903;59.926;30.404;2024-03-06T05:18:47;0.65;;;0.47;;
77736;SDS011;66903;59.926;30.404;2024-03-06T05:23:58;0.82;;;0.55;;
77736;SDS011;66903;59.926;30.404;2024-03-06T05:29:09;0.85;;;0.60;;
77736;SDS011;66903;59.926;30.404;2024-03-06T05:34:20;1.60;;;1.00;;
77736;SDS011;66903;59.926;30.404;2024-03-06T05:39:32;0.88;;;0.63;;
77736;SDS011;66903;59.926;30.404;2024-03-06T05:44:48;1.55;;;0.60;;
77736;SDS011;66903;59.926;30.404;2024-03-06T05:50:00;1.55;;;0.73;;
77736;SDS011;66903;59.926;30.404;2024-03-06T05:55:15;2.33;;;1.00;;
77736;SDS011;66903;59.926;30.404;2024-03-06T06:00:26;2.00;;;1.00;;
77736;SDS011;66903;59.926;30.404;2024-03-06T06:05:37;1.73;;;0.77;;
77736;SDS011;66903;59.926;30.404;2024-03-06T06:10:50;4.70;;;1.15;;
77736;SDS011;66903;59.926;30.404;2024-03-06T06:16:05;2.60;;;1.40;;
77736;SDS011;66903;59.926;30.404;2024-03-06T06:21:17;4.07;;;1.27;;
77736;SDS011;66903;59.926;30.404;2024-03-06T06:26:29;3.33;;;1.55;;
77736;SDS011;66903;59.926;30.404;2024-03-06T06:31:41;5.45;;;1.40;;
77736;SDS011;66903;59.926;30.404;2024-03-06T06:36:52;5.03;;;1.58;;
77736;SDS011;66903;59.926;30.404;2024-03-06T06:42:03;5.50;;;2.40;;
77736;SDS011;66903;59.926;30.404;2024-03-06T06:47:14;4.28;;;1.90;;
77736;SDS011;66903;59.926;30.404;2024-03-06T06:52:25;7.20;;;2.72;;
77736;SDS011;66903;59.926;30.404;2024-03-06T06:57:38;5.53;;;1.70;;
77736;SDS011;66903;59.926;30.404;2024-03-06T07:02:49;3.53;;;1.45;;
77736;SDS011;66903;59.926;30.404;2024-03-06T07:08:01;6.75;;;2.78;;
77736;SDS011;66903;59.926;30.404;2024-03-06T07:13:12;4.25;;;2.30;;
77736;SDS011;66903;59.926;30.404;2024-03-06T07:18:25;5.55;;;2.33;;
77736;SDS011;66903;59.926;30.404;2024-03-06T07:23:37;4.50;;;2.05;;
77736;SDS011;66903;59.926;30.404;2024-03-06T07:28:47;12.00;;;4.00;;
77736;SDS011;66903;59.926;30.404;2024-03-06T07:33:59;7.88;;;2.67;;
77736;SDS011;66903;59.926;30.404;2024-03-06T07:39:10;8.95;;;3.85;;
77736;SDS011;66903;59.926;30.404;2024-03-06T07:44:22;9.40;;;3.60;;
77736;SDS011;66903;59.926;30.404;2024-03-06T07:49:34;8.15;;;4.20;;
77736;SDS011;66903;59.926;30.404;2024-03-06T07:54:45;7.72;;;3.80;;
77736;SDS011;66903;59.926;30.404;2024-03-06T07:59:56;12.68;;;3.88;;
77736;SDS011;66903;59.926;30.404;2024-03-06T08:05:07;8.27;;;3.55;;
77736;SDS011;66903;59.926;30.404;2024-03-06T08:10:20;6.43;;;3.25;;
77736;SDS011;66903;59.926;30.404;2024-03-06T08:15:31;4.90;;;1.98;;
77736;SDS011;66903;59.926;30.404;2024-03-06T08:20:42;6.30;;;2.33;;
77736;SDS011;66903;59.926;30.404;2024-03-06T08:25:53;8.20;;;2.08;;
77736;SDS011;66903;59.926;30.404;2024-03-06T08:31:05;4.72;;;1.02;;
77736;SDS011;66903;59.926;30.404;2024-03-06T08:36:16;5.03;;;1.45;;
77736;SDS011;66903;59.926;30.404;2024-03-06T08:41:27;6.82;;;2.17;;
77736;SDS011;66903;59.926;30.404;2024-03-06T08:46:38;5.88;;;1.67;;
77736;SDS011;66903;59.926;30.404;2024-03-06T08:51:49;6.30;;;1.60;;
77736;SDS011;66903;59.926;30.404;2024-03-06T08:57:00;7.78;;;1.45;;
77736;SDS011;66903;59.926;30.404;2024-03-06T09:02:14;5.18;;;1.48;;
77736;SDS011;66903;59.926;30.404;2024-03-06T09:07:29;3.88;;;1.63;;
77736;SDS011;66903;59.926;30.404;2024-03-06T09:12:41;6.32;;;1.90;;
77736;SDS011;66903;59.926;30.404;2024-03-06T09:17:52;5.88;;;1.70;;
77736;SDS011;66903;59.926;30.404;2024-03-06T09:23:03;8.88;;;1.60;;
77736;SDS011;66903;59.926;30.404;2024-03-06T09:28:14;6.32;;;1.50;;
77736;SDS011;66903;59.926;30.404;2024-03-06T09:33:25;7.25;;;1.85;;
77736;SDS011;66903;59.926;30.404;2024-03-06T09:38:36;4.97;;;1.52;;
77736;SDS011;66903;59.926;30.404;2024-03-06T09:43:50;5.47;;;1.52;;
77736;SDS011;66903;59.926;30.404;2024-03-06T09:49:01;4.15;;;1.00;;
77736;SDS011;66903;59.926;30.404;2024-03-06T09:54:13;3.85;;;1.13;;
77736;SDS011;66903;59.926;30.404;2024-03-06T09:59:25;7.18;;;1.30;;
77736;SDS011;66903;59.926;30.404;2024-03-06T10:04:37;7.63;;;1.48;;
77736;SDS011;66903;59.926;30.404;2024-03-06T10:09:48;9.38;;;1.35;;
77736;SDS011;66903;59.926;30.404;2024-03-06T10:15:00;3.92;;;1.30;;
77736;SDS011;66903;59.926;30.404;2024-03-06T10:20:18;3.13;;;1.02;;
77736;SDS011;66903;59.926;30.404;2024-03-06T10:25:36;2.40;;;0.98;;
77736;SDS011;66903;59.926;30.404;2024-03-06T10:36:02;6.13;;;1.58;;
77736;SDS011;66903;59.926;30.404;2024-03-06T10:41:14;3.10;;;1.10;;
77736;SDS011;66903;59.926;30.404;2024-03-06T10:46:25;5.75;;;1.00;;
77736;SDS011;66903;59.926;30.404;2024-03-06T10:51:39;4.80;;;1.27;;
77736;SDS011;66903;59.926;30.404;2024-03-06T10:56:54;5.03;;;1.30;;
77736;SDS011;66903;59.926;30.404;2024-03-06T11:02:06;4.03;;;1.30;;
77736;SDS011;66903;59.926;30.404;2024-03-06T11:07:19;5.22;;;1.20;;
77736;SDS011;66903;59.926;30.404;2024-03-06T11:12:37;3.47;;;1.10;;
77736;SDS011;66903;59.926;30.404;2024-03-06T11:17:49;5.72;;;1.55;;
77736;SDS011;66903;59.926;30.404;2024-03-06T11:28:37;2.72;;;0.65;;
77736;SDS011;66903;59.926;30.404;2024-03-06T11:33:53;8.90;;;1.40;;
77736;SDS011;66903;59.926;30.404;2024-03-06T11:39:07;5.20;;;1.40;;
77736;SDS011;66903;59.926;30.404;2024-03-06T11:44:19;6.93;;;1.35;;
77736;SDS011;66903;59.926;30.404;2024-03-06T11:49:36;7.70;;;1.52;;
77736;SDS011;66903;59.926;30.404;2024-03-06T11:54:48;4.32;;;0.90;;
77736;SDS011;66903;59.926;30.404;2024-03-06T12:00:02;7.55;;;2.05;;
77736;SDS011;66903;59.926;30.404;2024-03-06T12:05:17;2.90;;;0.80;;
77736;SDS011;66903;59.926;30.404;2024-03-06T12:10:28;2.88;;;0.98;;
77736;SDS011;66903;59.926;30.404;2024-03-06T12:15:42;2.50;;;1.08;;
77736;SDS011;66903;59.926;30.404;2024-03-06T12:20:55;3.53;;;1.23;;
77736;SDS011;66903;59.926;30.404;2024-03-06T12:26:06;5.65;;;1.27;;
77736;SDS011;66903;59.926;30.404;2024-03-06T12:31:21;7.38;;;1.15;;
77736;SDS011;66903;59.926;30.404;2024-03-06T12:36:33;4.97;;;1.00;;
77736;SDS011;66903;59.926;30.404;2024-03-06T12:41:44;3.28;;;1.17;;
77736;SDS011;66903;59.926;30.404;2024-03-06T12:46:55;10.65;;;1.10;;
77736;SDS011;66903;59.926;30.404;2024-03-06T12:52:06;4.18;;;0.80;;
77736;SDS011;66903;59.926;30.404;2024-03-06T12:57:17;5.72;;;1.02;;
77736;SDS011;66903;59.926;30.404;2024-03-06T13:02:28;3.40;;;0.80;;
77736;SDS011;66903;59.926;30.404;2024-03-06T13:07:39;4.50;;;1.10;;
77736;SDS011;66903;59.926;30.404;2024-03-06T13:12:52;4.82;;;1.10;;
77736;SDS011;66903;59.926;30.404;2024-03-06T13:18:03;2.83;;;0.95;;
77736;SDS011;66903;59.926;30.404;2024-03-06T13:23:16;3.13;;;1.00;;
77736;SDS011;66903;59.926;30.404;2024-03-06T13:28:27;1.60;;;0.68;;
77736;SDS011;66903;59.926;30.404;2024-03-06T13:33:38;2.13;;;0.77;;
77736;SDS011;66903;59.926;30.404;2024-03-06T13:38:49;2.28;;;0.82;;
77736;SDS011;66903;59.926;30.404;2024-03-06T13:44:00;5.13;;;0.80;;
77736;SDS011;66903;59.926;30.404;2024-03-06T13:49:35;11.10;;;1.92;;
77736;SDS011;66903;59.926;30.404;2024-03-06T13:54:46;2.17;;;0.98;;
77736;SDS011;66903;59.926;30.404;2024-03-06T13:59:58;3.40;;;0.82;;
77736;SDS011;66903;59.926;30.404;2024-03-06T14:05:09;2.92;;;1.23;;
77736;SDS011;66903;59.926;30.404;2024-03-06T14:10:20;6.03;;;1.38;;
77736;SDS011;66903;59.926;30.404;2024-03-06T14:15:33;3.22;;;1.23;;
77736;SDS011;66903;59.926;30.404;2024-03-06T14:20:44;5.82;;;1.25;;
77736;SDS011;66903;59.926;30.404;2024-03-06T14:25:55;3.55;;;1.20;;
77736;SDS011;66903;59.926;30.404;2024-03-06T14:31:05;4.57;;;1.35;;
77736;SDS011;66903;59.926;30.404;2024-03-06T14:36:17;3.30;;;0.90;;
77736;SDS011;66903;59.926;30.404;2024-03-06T14:41:28;2.53;;;0.75;;
77736;SDS011;66903;59.926;30.404;2024-03-06T14:46:40;5.72;;;1.30;;
77736;SDS011;66903;59.926;30.404;2024-03-06T14:51:51;5.93;;;1.70;;
77736;SDS011;66903;59.926;30.404;2024-03-06T14:57:03;2.60;;;1.10;;
77736;SDS011;66903;59.926;30.404;2024-03-06T15:02:16;3.83;;;1.27;;
77736;SDS011;66903;59.926;30.404;2024-03-06T15:07:27;4.80;;;1.13;;
77736;SDS011;66903;59.926;30.404;2024-03-06T15:12:38;3.85;;;1.48;;
77736;SDS011;66903;59.926;30.404;2024-03-06T15:17:49;4.47;;;1.63;;
77736;SDS011;66903;59.926;30.404;2024-03-06T15:23:00;4.32;;;1.50;;
77736;SDS011;66903;59.926;30.404;2024-03-06T15:28:12;3.70;;;1.30;;
77736;SDS011;66903;59.926;30.404;2024-03-06T15:33:23;4.10;;;1.35;;
77736;SDS011;66903;59.926;30.404;2024-03-06T15:38:35;2.90;;;1.23;;
77736;SDS011;66903;59.926;30.404;2024-03-06T15:43:46;3.33;;;1.33;;
77736;SDS011;66903;59.926;30.404;2024-03-06T15:48:57;4.35;;;1.20;;
77736;SDS011;66903;59.926;30.404;2024-03-06T15:54:08;4.13;;;1.58;;
77736;SDS011;66903;59.926;30.404;2024-03-06T15:59:20;4.20;;;1.17;;
77736;SDS011;66903;59.926;30.404;2024-03-06T16:04:31;5.13;;;1.30;;
77736;SDS011;66903;59.926;30.404;2024-03-06T16:09:42;2.63;;;0.95;;
77736;SDS011;66903;59.926;30.404;2024-03-06T16:14:53;4.75;;;1.50;;
77736;SDS011;66903;59.926;30.404;2024-03-06T16:20:04;1.88;;;0.82;;
77736;SDS011;66903;59.926;30.404;2024-03-06T16:25:16;4.72;;;1.63;;
77736;SDS011;66903;59.926;30.404;2024-03-06T16:30:28;2.40;;;0.93;;
77736;SDS011;66903;59.926;30.404;2024-03-06T16:35:40;3.08;;;1.30;;
77736;SDS011;66903;59.926;30.404;2024-03-06T16:40:52;5.03;;;1.65;;
77736;SDS011;66903;59.926;30.404;2024-03-06T16:46:03;2.38;;;1.10;;
77736;SDS011;66903;59.926;30.404;2024-03-06T16:51:18;3.95;;;1.80;;
77736;SDS011;66903;59.926;30.404;2024-03-06T16:56:30;5.10;;;1.77;;
77736;SDS011;66903;59.926;30.404;2024-03-06T17:01:41;2.85;;;0.88;;
77736;SDS011;66903;59.926;30.404;2024-03-06T17:06:52;3.40;;;1.40;;
77736;SDS011;66903;59.926;30.404;2024-03-06T17:12:06;2.58;;;1.20;;
77736;SDS011;66903;59.926;30.404;2024-03-06T17:17:18;4.05;;;1.38;;
77736;SDS011;66903;59.926;30.404;2024-03-06T17:22:29;2.33;;;0.90;;
77736;SDS011;66903;59.926;30.404;2024-03-06T17:27:41;4.65;;;1.55;;
77736;SDS011;66903;59.926;30.404;2024-03-06T17:32:52;2.92;;;1.13;;
77736;SDS011;66903;59.926;30.404;2024-03-06T17:38:05;4.05;;;1.45;;
77736;SDS011;66903;59.926;30.404;2024-03-06T17:43:16;3.42;;;1.40;;
77736;SDS011;66903;59.926;30.404;2024-03-06T17:48:27;3.30;;;1.50;;
77736;SDS011;66903;59.926;30.404;2024-03-06T17:53:39;2.75;;;1.30;;
77736;SDS011;66903;59.926;30.404;2024-03-06T17:58:50;3.50;;;1.92;;
77736;SDS011;66903;59.926;30.404;2024-03-06T18:04:02;2.28;;;1.10;;
77736;SDS011;66903;59.926;30.404;2024-03-06T18:09:13;3.75;;;1.60;;
77736;SDS011;66903;59.926;30.404;2024-03-06T18:14:25;2.88;;;1.13;;
77736;SDS011;66903;59.926;30.404;2024-03-06T18:19:42;6.20;;;2.40;;
77736;SDS011;66903;59.926;30.404;2024-03-06T18:24:53;4.47;;;1.70;;
77736;SDS011;66903;59.926;30.404;2024-03-06T18:30:05;2.78;;;1.17;;
77736;SDS011;66903;59.926;30.404;2024-03-06T18:35:17;2.97;;;1.30;;
77736;SDS011;66903;59.926;30.404;2024-03-06T18:40:28;2.10;;;0.90;;
77736;SDS011;66903;59.926;30.404;2024-03-06T18:45:39;3.03;;;1.20;;
77736;SDS011;66903;59.926;30.404;2024-03-06T18:50:50;2.80;;;1.33;;
77736;SDS011;66903;59.926;30.404;2024-03-06T18:56:01;4.00;;;1.35;;
77736;SDS011;66903;59.926;30.404;2024-03-06T19:01:14;2.88;;;0.98;;
77736;SDS011;66903;59.926;30.404;2024-03-06T19:06:25;2.88;;;1.33;;
77736;SDS011;66903;59.926;30.404;2024-03-06T19:11:36;2.80;;;1.25;;
77736;SDS011;66903;59.926;30.404;2024-03-06T19:16:47;3.80;;;1.80;;
77736;SDS011;66903;59.926;30.404;2024-03-06T19:21:58;2.45;;;1.25;;
77736;SDS011;66903;59.926;30.404;2024-03-06T19:27:10;2.35;;;1.05;;
77736;SDS011;66903;59.926;30.404;2024-03-06T19:32:22;3.30;;;1.33;;
77736;SDS011;66903;59.926;30.404;2024-03-06T19:37:34;2.55;;;1.10;;
77736;SDS011;66903;59.926;30.404;2024-03-06T19:42:45;3.80;;;1.65;;
77736;SDS011;66903;59.926;30.404;2024-03-06T19:47:56;3.33;;;1.10;;
77736;SDS011;66903;59.926;30.404;2024-03-06T19:53:07;2.75;;;1.15;;
77736;SDS011;66903;59.926;30.404;2024-03-06T19:58:18;2.75;;;1.25;;
77736;SDS011;66903;59.926;30.404;2024-03-06T20:03:29;2.83;;;0.93;;
77736;SDS011;66903;59.926;30.404;2024-03-06T20:08:40;2.42;;;1.17;;
77736;SDS011;66903;59.926;30.404;2024-03-06T20:13:51;3.13;;;1.30;;
77736;SDS011;66903;59.926;30.404;2024-03-06T20:19:03;3.45;;;1.50;;
77736;SDS011;66903;59.926;30.404;2024-03-06T20:24:14;2.17;;;0.95;;
77736;SDS011;66903;59.926;30.404;2024-03-06T20:29:25;1.67;;;0.93;;
77736;SDS011;66903;59.926;30.404;2024-03-06T20:34:37;3.08;;;1.15;;
77736;SDS011;66903;59.926;30.404;2024-03-06T20:39:48;3.20;;;1.50;;
77736;SDS011;66903;59.926;30.404;2024-03-06T20:44:59;1.83;;;0.82;;
77736;SDS011;66903;59.926;30.404;2024-03-06T20:50:10;4.03;;;1.58;;
77736;SDS011;66903;59.926;30.404;2024-03-06T20:55:22;2.72;;;1.08;;
77736;SDS011;66903;59.926;30.404;2024-03-06T21:00:33;2.72;;;1.10;;
77736;SDS011;66903;59.926;30.404;2024-03-06T21:05:44;2.85;;;1.02;;
77736;SDS011;66903;59.926;30.404;2024-03-06T21:10:55;3.90;;;1.30;;
77736;SDS011;66903;59.926;30.404;2024-03-06T21:16:08;2.38;;;1.13;;
77736;SDS011;66903;59.926;30.404;2024-03-06T21:21:19;2.25;;;1.00;;
77736;SDS011;66903;59.926;30.404;2024-03-06T21:26:30;2.17;;;1.17;;
77736;SDS011;66903;59.926;30.404;2024-03-06T21:31:41;3.30;;;1.23;;
77736;SDS011;66903;59.926;30.404;2024-03-06T21:36:54;2.50;;;1.23;;
77736;SDS011;66903;59.926;30.404;2024-03-06T21:42:05;2.05;;;0.80;;
77736;SDS011;66903;59.926;30.404;2024-03-06T21:47:16;3.47;;;1.40;;
77736;SDS011;66903;59.926;30.404;2024-03-06T21:52:32;2.72;;;0.98;;
77736;SDS011;66903;59.926;30.404;2024-03-06T21:57:44;2.42;;;1.00;;
77736;SDS011;66903;59.926;30.404;2024-03-06T22:09:02;3.67;;;1.27;;
77736;SDS011;66903;59.926;30.404;2024-03-06T22:14:13;2.90;;;1.30;;
77736;SDS011;66903;59.926;30.404;2024-03-06T22:19:24;2.95;;;1.45;;
77736;SDS011;66903;59.926;30.404;2024-03-06T22:24:35;2.25;;;1.00;;
77736;SDS011;66903;59.926;30.404;2024-03-06T22:29:46;5.00;;;1.55;;
77736;SDS011;66903;59.926;30.404;2024-03-06T22:34:58;2.10;;;0.95;;
77736;SDS011;66903;59.926;30.404;2024-03-06T22:40:08;2.53;;;1.20;;
77736;SDS011;66903;59.926;30.404;2024-03-06T22:45:20;2.50;;;1.15;;
77736;SDS011;66903;59.926;30.404;2024-03-06T22:50:31;3.47;;;1.70;;
77736;SDS011;66903;59.926;30.404;2024-03-06T22:55:41;3.33;;;1.52;;
77736;SDS011;66903;59.926;30.404;2024-03-06T23:00:52;3.45;;;1.42;;
77736;SDS011;66903;59.926;30.404;2024-03-06T23:06:03;3.20;;;1.70;;
77736;SDS011;66903;59.926;30.404;2024-03-06T23:11:15;3.50;;;1.30;;
77736;SDS011;66903;59.926;30.404;2024-03-06T23:16:27;2.03;;;0.98;;
77736;SDS011;66903;59.926;30.404;2024-03-06T23:21:38;2.28;;;1.35;;
77736;SDS011;66903;59.926;30.404;2024-03-06T23:26:49;2.30;;;0.88;;
77736;SDS011;66903;59.926;30.404;2024-03-06T23:32:00;1.15;;;0.65;;
77736;SDS011;66903;59.926;30.404;2024-03-06T23:37:11;2.53;;;0.80;;
77736;SDS011;66903;59.926;30.404;2024-03-06T23:42:22;2.03;;;0.95;;
77736;SDS011;66903;59.926;30.404;2024-03-06T23:47:33;2.47;;;0.98;;
77736;SDS011;66903;59.926;30.404;2024-03-06T23:52:46;2.00;;;0.90;;
77736;SDS011;66903;59.926;30.404;2024-03-06T23:57:58;2.28;;;0.80;;
